YQF YTWB-YBAF
Flight info
| Callsign | YQF |
|---|---|
| Flight time | 0h 20m |
| Altitude | 11000 |
| Route | YBAF |
| Aircraft | C25B/M-SDE2E3FGHRWXY/LB1 |
Departure
| Time | 2026-04-18 09:44 |
|---|---|
| Airport | Toowoomba Airport (YTWB) |
Arrival
| Time | 2026-04-18 10:04 |
|---|---|
| Airport | Brisbane Archerfield Airport (YBAF) |
| Time | Latitude | Longitude | Altitude | Speed | Heading |
|---|---|---|---|---|---|
| 2026-04-18 09:31 | -27.54433 | 151.91880 | 2086 ft | 0 kts | 203° |
| 2026-04-18 09:36 | -27.54435 | 151.91878 | 2081 ft | 0 kts | 227° |
| 2026-04-18 09:37 | -27.54437 | 151.91874 | 2081 ft | 4 kts | 260° |
| 2026-04-18 09:37 | -27.54411 | 151.91858 | 2084 ft | 0 kts | 45° |
| 2026-04-18 09:37 | -27.54409 | 151.91900 | 2081 ft | 4 kts | 120° |
| 2026-04-18 09:38 | -27.54410 | 151.91900 | 2081 ft | 0 kts | 119° |
| 2026-04-18 09:38 | -27.54416 | 151.91917 | 2077 ft | 11 kts | 111° |
| 2026-04-18 09:38 | -27.54463 | 151.92062 | 2072 ft | 25 kts | 108° |
| 2026-04-18 09:39 | -27.54507 | 151.92161 | 2070 ft | 0 kts | 116° |
| 2026-04-18 09:42 | -27.54505 | 151.92193 | 2068 ft | 7 kts | 42° |
| 2026-04-18 09:42 | -27.54483 | 151.92228 | 2065 ft | 12 kts | 118° |
| 2026-04-18 09:43 | -27.54532 | 151.92395 | 2062 ft | 25 kts | 115° |
| 2026-04-18 09:43 | -27.54571 | 151.92433 | 2061 ft | 3 kts | 242° |
| 2026-04-18 09:43 | -27.54557 | 151.92393 | 2062 ft | 10 kts | 295° |
| 2026-04-18 09:43 | -27.54425 | 151.92100 | 2071 ft | 98 kts | 297° |
| 2026-04-18 09:44 | -27.53959 | 151.91098 | 2540 ft | 174 kts | 302° |
| 2026-04-18 09:44 | -27.53359 | 151.89816 | 3211 ft | 192 kts | 294° |
| 2026-04-18 09:44 | -27.52889 | 151.88361 | 3723 ft | 212 kts | 292° |
| 2026-04-18 09:44 | -27.52294 | 151.86773 | 4501 ft | 227 kts | 292° |
| 2026-04-18 09:45 | -27.51541 | 151.85156 | 5417 ft | 239 kts | 315° |
| 2026-04-18 09:45 | -27.50057 | 151.84309 | 6630 ft | 248 kts | 346° |
| 2026-04-18 09:45 | -27.48311 | 151.84411 | 7677 ft | 257 kts | 12° |
| 2026-04-18 09:45 | -27.46602 | 151.85044 | 8809 ft | 261 kts | 15° |
| 2026-04-18 09:46 | -27.44806 | 151.85727 | 9394 ft | 286 kts | 25° |
| 2026-04-18 09:46 | -27.43232 | 151.87127 | 10333 ft | 291 kts | 41° |
| 2026-04-18 09:46 | -27.41734 | 151.88660 | 11056 ft | 302 kts | 40° |
| 2026-04-18 09:46 | -27.40156 | 151.90315 | 11101 ft | 317 kts | 41° |
| 2026-04-18 09:47 | -27.38577 | 151.92112 | 11102 ft | 329 kts | 52° |
| 2026-04-18 09:47 | -27.37672 | 151.94490 | 11095 ft | 338 kts | 81° |
| 2026-04-18 09:47 | -27.37757 | 151.97130 | 11092 ft | 341 kts | 106° |
| 2026-04-18 09:47 | -27.38740 | 151.99540 | 11101 ft | 341 kts | 124° |
| 2026-04-18 09:48 | -27.40061 | 152.01769 | 11110 ft | 344 kts | 128° |
| 2026-04-18 09:48 | -27.41463 | 152.03960 | 11118 ft | 346 kts | 129° |
| 2026-04-18 09:48 | -27.42892 | 152.06145 | 11118 ft | 348 kts | 129° |
| 2026-04-18 09:48 | -27.44323 | 152.08304 | 11118 ft | 349 kts | 130° |
| 2026-04-18 09:49 | -27.45769 | 152.10493 | 11121 ft | 347 kts | 130° |
| 2026-04-18 09:49 | -27.47214 | 152.12667 | 11120 ft | 346 kts | 130° |
| 2026-04-18 09:49 | -27.48644 | 152.14834 | 11118 ft | 344 kts | 130° |
| 2026-04-18 09:49 | -27.50071 | 152.16989 | 11125 ft | 338 kts | 130° |
| 2026-04-18 09:50 | -27.51464 | 152.19118 | 11119 ft | 338 kts | 130° |
| 2026-04-18 09:50 | -27.52868 | 152.21245 | 11119 ft | 339 kts | 130° |
| 2026-04-18 09:50 | -27.54270 | 152.23383 | 11117 ft | 339 kts | 128° |
| 2026-04-18 09:50 | -27.55129 | 152.25858 | 11096 ft | 347 kts | 99° |
| 2026-04-18 09:51 | -27.55040 | 152.28537 | 11108 ft | 348 kts | 84° |
| 2026-04-18 09:51 | -27.54713 | 152.31245 | 11107 ft | 349 kts | 83° |
| 2026-04-18 09:51 | -27.54492 | 152.33959 | 11104 ft | 348 kts | 89° |
| 2026-04-18 09:51 | -27.54536 | 152.36695 | 10931 ft | 353 kts | 94° |
| 2026-04-18 09:52 | -27.54603 | 152.39500 | 10495 ft | 364 kts | 91° |
| 2026-04-18 09:52 | -27.54548 | 152.42396 | 10005 ft | 374 kts | 89° |
| 2026-04-18 09:52 | -27.54482 | 152.45351 | 9474 ft | 379 kts | 90° |
| 2026-04-18 09:52 | -27.54463 | 152.48331 | 8966 ft | 382 kts | 91° |
| 2026-04-18 09:53 | -27.54449 | 152.51330 | 8456 ft | 383 kts | 90° |
| 2026-04-18 09:53 | -27.54412 | 152.54289 | 7954 ft | 381 kts | 90° |
| 2026-04-18 09:53 | -27.54375 | 152.57205 | 7458 ft | 363 kts | 90° |
| 2026-04-18 09:53 | -27.54346 | 152.60000 | 6984 ft | 352 kts | 90° |
| 2026-04-18 09:54 | -27.54322 | 152.62749 | 6521 ft | 352 kts | 90° |
| 2026-04-18 09:54 | -27.54285 | 152.65528 | 6032 ft | 356 kts | 90° |
| 2026-04-18 09:54 | -27.54259 | 152.68283 | 5561 ft | 344 kts | 89° |
| 2026-04-18 09:54 | -27.54226 | 152.70847 | 5127 ft | 311 kts | 89° |
| 2026-04-18 09:55 | -27.54202 | 152.73174 | 4730 ft | 284 kts | 89° |
| 2026-04-18 09:55 | -27.54171 | 152.75285 | 4464 ft | 260 kts | 89° |
| 2026-04-18 09:55 | -27.54153 | 152.77226 | 4290 ft | 238 kts | 90° |
| 2026-04-18 09:55 | -27.54128 | 152.79075 | 4109 ft | 236 kts | 89° |
| 2026-04-18 09:56 | -27.54106 | 152.80921 | 3929 ft | 235 kts | 89° |
| 2026-04-18 09:56 | -27.54084 | 152.82759 | 3781 ft | 234 kts | 89° |
| 2026-04-18 09:56 | -27.54059 | 152.84585 | 3606 ft | 232 kts | 90° |
| 2026-04-18 09:56 | -27.54040 | 152.86402 | 3444 ft | 232 kts | 90° |
| 2026-04-18 09:57 | -27.54008 | 152.88173 | 3165 ft | 219 kts | 90° |
| 2026-04-18 09:57 | -27.54186 | 152.89831 | 2687 ft | 214 kts | 105° |
| 2026-04-18 09:57 | -27.54671 | 152.91373 | 2297 ft | 204 kts | 109° |
| 2026-04-18 09:57 | -27.55090 | 152.92854 | 1798 ft | 185 kts | 108° |
| 2026-04-18 09:58 | -27.55466 | 152.94129 | 1349 ft | 158 kts | 109° |
| 2026-04-18 09:58 | -27.55746 | 152.95219 | 1017 ft | 135 kts | 107° |
| 2026-04-18 09:58 | -27.56034 | 152.96215 | 866 ft | 125 kts | 108° |
| 2026-04-18 09:58 | -27.56294 | 152.97093 | 698 ft | 114 kts | 107° |
| 2026-04-18 09:59 | -27.56515 | 152.97914 | 481 ft | 104 kts | 105° |
| 2026-04-18 09:59 | -27.56732 | 152.98655 | 299 ft | 93 kts | 108° |
| 2026-04-18 09:59 | -27.56923 | 152.99333 | 148 ft | 91 kts | 107° |
| 2026-04-18 10:00 | -27.57362 | 153.00835 | 383 ft | 148 kts | 109° |
| 2026-04-18 10:00 | -27.57702 | 153.01991 | 1262 ft | 151 kts | 109° |
| 2026-04-18 10:00 | -27.57634 | 153.03132 | 1592 ft | 158 kts | 66° |
| 2026-04-18 10:00 | -27.56715 | 153.03942 | 1613 ft | 184 kts | 23° |
| 2026-04-18 10:01 | -27.55382 | 153.03824 | 1552 ft | 209 kts | 337° |
| 2026-04-18 10:01 | -27.54335 | 153.02632 | 1502 ft | 228 kts | 298° |
| 2026-04-18 10:01 | -27.53672 | 153.00910 | 1452 ft | 250 kts | 293° |
| 2026-04-18 10:01 | -27.53036 | 152.99137 | 1420 ft | 240 kts | 288° |
| 2026-04-18 10:02 | -27.53009 | 152.97387 | 1546 ft | 217 kts | 248° |
| 2026-04-18 10:02 | -27.53855 | 152.96186 | 1526 ft | 186 kts | 210° |
| 2026-04-18 10:02 | -27.54990 | 152.95630 | 1342 ft | 169 kts | 194° |
| 2026-04-18 10:02 | -27.55909 | 152.95700 | 1325 ft | 109 kts | 141° |
| 2026-04-18 10:03 | -27.56154 | 152.96412 | 1072 ft | 100 kts | 97° |
| 2026-04-18 10:03 | -27.56311 | 152.97183 | 815 ft | 99 kts | 107° |
| 2026-04-18 10:03 | -27.56520 | 152.97917 | 550 ft | 95 kts | 106° |
| 2026-04-18 10:03 | -27.56714 | 152.98599 | 313 ft | 91 kts | 107° |
| 2026-04-18 10:04 | -27.56910 | 152.99282 | 154 ft | 91 kts | 107° |
| 2026-04-18 10:04 | -27.57093 | 152.99930 | 52 ft | 83 kts | 106° |
| 2026-04-18 10:04 | -27.57259 | 153.00486 | 40 ft | 62 kts | 103° |
| 2026-04-18 10:04 | -27.57365 | 153.00886 | 35 ft | 48 kts | 107° |
| 2026-04-18 10:05 | -27.57410 | 153.01046 | 33 ft | 10 kts | 109° |
| 2026-04-18 10:05 | -27.57388 | 153.01105 | 34 ft | 9 kts | 16° |
| 2026-04-18 10:05 | -27.57333 | 153.01122 | 37 ft | 8 kts | 14° |
| 2026-04-18 10:05 | -27.57314 | 153.01151 | 38 ft | 5 kts | 124° |
| 2026-04-18 10:06 | -27.57326 | 153.01154 | 38 ft | 0 kts | 195° |
| 2026-04-18 10:06 | -27.57342 | 153.01143 | 37 ft | 7 kts | 239° |
| 2026-04-18 10:06 | -27.57326 | 153.01051 | 35 ft | 16 kts | 286° |
| 2026-04-18 10:07 | -27.57287 | 153.00925 | 37 ft | 17 kts | 292° |
| 2026-04-18 10:07 | -27.57252 | 153.00792 | 38 ft | 19 kts | 288° |
| 2026-04-18 10:07 | -27.57209 | 153.00642 | 40 ft | 21 kts | 288° |
| 2026-04-18 10:07 | -27.57164 | 153.00484 | 44 ft | 21 kts | 287° |
| 2026-04-18 10:08 | -27.57141 | 153.00403 | 42 ft | 56 kts | 289° |
| 2026-04-18 10:08 | -27.57019 | 152.99982 | 38 ft | 0 kts | 288° |
| 2026-04-18 10:08 | -27.57005 | 152.99849 | 40 ft | 15 kts | 220° |
| 2026-04-18 10:08 | -27.57079 | 152.99881 | 40 ft | 12 kts | 105° |
| 2026-04-18 10:09 | -27.57144 | 153.00110 | 40 ft | 67 kts | 107° |
| 2026-04-18 10:09 | -27.57355 | 153.00835 | 158 ft | 121 kts | 108° |
| 2026-04-18 10:09 | -27.57632 | 153.01770 | 698 ft | 128 kts | 108° |
| 2026-04-18 10:09 | -27.57731 | 153.02770 | 1045 ft | 127 kts | 76° |
| 2026-04-18 10:10 | -27.57161 | 153.03588 | 1274 ft | 150 kts | 31° |
| 2026-04-18 10:10 | -27.56039 | 153.03585 | 1345 ft | 179 kts | 341° |
| 2026-04-18 10:10 | -27.55042 | 153.02540 | 1417 ft | 223 kts | 302° |
| 2026-04-18 10:10 | -27.54459 | 153.00862 | 1522 ft | 233 kts | 287° |
| 2026-04-18 10:11 | -27.53975 | 152.99117 | 1426 ft | 234 kts | 286° |
| 2026-04-18 10:11 | -27.53672 | 152.97349 | 1347 ft | 227 kts | 262° |
| 2026-04-18 10:11 | -27.54402 | 152.95949 | 1491 ft | 199 kts | 216° |
| 2026-04-18 10:11 | -27.55589 | 152.95502 | 1387 ft | 176 kts | 171° |
| 2026-04-18 10:12 | -27.56413 | 152.96133 | 1295 ft | 131 kts | 107° |
| 2026-04-18 10:12 | -27.56329 | 152.97091 | 910 ft | 112 kts | 90° |
| 2026-04-18 10:12 | -27.56534 | 152.97936 | 566 ft | 104 kts | 106° |
| 2026-04-18 10:12 | -27.56737 | 152.98668 | 366 ft | 94 kts | 109° |
| 2026-04-18 10:13 | -27.56931 | 152.99353 | 169 ft | 91 kts | 108° |
| 2026-04-18 10:13 | -27.57120 | 153.00017 | 44 ft | 83 kts | 106° |
| 2026-04-18 10:13 | -27.57282 | 153.00593 | 39 ft | 81 kts | 106° |
| 2026-04-18 10:13 | -27.57505 | 153.01357 | 161 ft | 119 kts | 109° |
| 2026-04-18 10:14 | -27.57786 | 153.02326 | 516 ft | 140 kts | 99° |
| 2026-04-18 10:14 | -27.57469 | 153.03453 | 833 ft | 174 kts | 50° |
| 2026-04-18 10:14 | -27.56311 | 153.04013 | 1261 ft | 200 kts | 5° |
| 2026-04-18 10:14 | -27.54885 | 153.03528 | 1472 ft | 227 kts | 330° |
| 2026-04-18 10:15 | -27.53880 | 153.02177 | 1525 ft | 228 kts | 294° |
| 2026-04-18 10:15 | -27.53352 | 153.00521 | 1522 ft | 229 kts | 288° |
| 2026-04-18 10:15 | -27.52860 | 152.98814 | 1587 ft | 227 kts | 283° |
| 2026-04-18 10:15 | -27.53013 | 152.97105 | 1516 ft | 219 kts | 242° |
| 2026-04-18 10:16 | -27.53986 | 152.95986 | 1478 ft | 187 kts | 201° |
| 2026-04-18 10:16 | -27.55136 | 152.95587 | 1362 ft | 160 kts | 181° |
| 2026-04-18 10:16 | -27.56033 | 152.96008 | 1206 ft | 126 kts | 125° |
| 2026-04-18 10:16 | -27.56258 | 152.96869 | 903 ft | 112 kts | 103° |
| 2026-04-18 10:17 | -27.56463 | 152.97685 | 585 ft | 106 kts | 107° |
| 2026-04-18 10:17 | -27.56673 | 152.98440 | 371 ft | 96 kts | 109° |
| 2026-04-18 10:17 | -27.56860 | 152.99121 | 195 ft | 89 kts | 106° |
| 2026-04-18 10:17 | -27.57049 | 152.99773 | 61 ft | 86 kts | 107° |
| 2026-04-18 10:18 | -27.57221 | 153.00357 | 40 ft | 69 kts | 107° |
| 2026-04-18 10:18 | -27.57375 | 153.00910 | 34 ft | 98 kts | 107° |
| 2026-04-18 10:18 | -27.57623 | 153.01727 | 405 ft | 118 kts | 109° |
| 2026-04-18 10:18 | -27.57918 | 153.02667 | 798 ft | 138 kts | 109° |
| 2026-04-18 10:19 | -27.58247 | 153.03762 | 1112 ft | 151 kts | 108° |
| 2026-04-18 10:19 | -27.58491 | 153.05004 | 1436 ft | 174 kts | 103° |
| 2026-04-18 10:19 | -27.58872 | 153.06381 | 1775 ft | 193 kts | 109° |
| 2026-04-18 10:19 | -27.59313 | 153.07857 | 2107 ft | 209 kts | 109° |
| 2026-04-18 10:20 | -27.59789 | 153.09458 | 2448 ft | 221 kts | 109° |
| 2026-04-18 10:20 | -27.60294 | 153.11142 | 2624 ft | 236 kts | 109° |
| 2026-04-18 10:20 | -27.60855 | 153.12951 | 2627 ft | 252 kts | 109° |
| 2026-04-18 10:20 | -27.61402 | 153.14839 | 2610 ft | 249 kts | 109° |
| 2026-04-18 10:21 | -27.61930 | 153.16649 | 2623 ft | 238 kts | 110° |
| 2026-04-18 10:21 | -27.62450 | 153.18414 | 2625 ft | 238 kts | 109° |
| 2026-04-18 10:21 | -27.62960 | 153.20193 | 2620 ft | 239 kts | 109° |
| 2026-04-18 10:21 | -27.63476 | 153.21978 | 2626 ft | 240 kts | 109° |
| 2026-04-18 10:22 | -27.63987 | 153.23771 | 2668 ft | 239 kts | 109° |
| 2026-04-18 10:22 | -27.64484 | 153.25524 | 2786 ft | 236 kts | 109° |
| 2026-04-18 10:22 | -27.64980 | 153.27280 | 2913 ft | 234 kts | 109° |
| 2026-04-18 10:22 | -27.65697 | 153.28912 | 3025 ft | 238 kts | 128° |
| 2026-04-18 10:23 | -27.66799 | 153.30364 | 3153 ft | 249 kts | 131° |
| 2026-04-18 10:23 | -27.67927 | 153.31897 | 3286 ft | 255 kts | 131° |
| 2026-04-18 10:23 | -27.69085 | 153.33301 | 3401 ft | 243 kts | 141° |
| 2026-04-18 10:23 | -27.70581 | 153.34203 | 3517 ft | 245 kts | 155° |
| 2026-04-18 10:24 | -27.72136 | 153.35016 | 3606 ft | 249 kts | 154° |
| 2026-04-18 10:24 | -27.73709 | 153.35820 | 3608 ft | 254 kts | 155° |
| 2026-04-18 10:24 | -27.75336 | 153.36646 | 3612 ft | 259 kts | 155° |
| 2026-04-18 10:24 | -27.76989 | 153.37485 | 3615 ft | 262 kts | 155° |
| 2026-04-18 10:25 | -27.78653 | 153.38334 | 3621 ft | 264 kts | 155° |
| 2026-04-18 10:25 | -27.80338 | 153.39201 | 3599 ft | 267 kts | 155° |
| 2026-04-18 10:25 | -27.82084 | 153.39875 | 3605 ft | 275 kts | 172° |
| 2026-04-18 10:25 | -27.84188 | 153.39794 | 3615 ft | 314 kts | 183° |
| 2026-04-18 10:26 | -27.86348 | 153.39590 | 3622 ft | 310 kts | 183° |
| 2026-04-18 10:26 | -27.88452 | 153.39352 | 3619 ft | 307 kts | 184° |
| 2026-04-18 10:26 | -27.90569 | 153.39098 | 3626 ft | 305 kts | 184° |
| 2026-04-18 10:26 | -27.92675 | 153.38846 | 3629 ft | 304 kts | 185° |
| 2026-04-18 10:27 | -27.94780 | 153.38601 | 3633 ft | 304 kts | 184° |
| 2026-04-18 10:27 | -27.96883 | 153.38357 | 3631 ft | 303 kts | 183° |
| 2026-04-18 10:27 | -27.98932 | 153.38670 | 3608 ft | 298 kts | 157° |
| 2026-04-18 10:27 | -28.00622 | 153.40011 | 3610 ft | 298 kts | 138° |
| 2026-04-18 10:28 | -28.02112 | 153.41633 | 3615 ft | 296 kts | 138° |
| 2026-04-18 10:28 | -28.03822 | 153.42757 | 3201 ft | 291 kts | 155° |
| 2026-04-18 10:28 | -28.05661 | 153.43700 | 2343 ft | 278 kts | 153° |
| 2026-04-18 10:28 | -28.07253 | 153.44719 | 1900 ft | 244 kts | 148° |
| 2026-04-18 10:29 | -28.08626 | 153.45580 | 1660 ft | 201 kts | 153° |
| 2026-04-18 10:29 | -28.09818 | 153.46319 | 1333 ft | 190 kts | 150° |
| 2026-04-18 10:29 | -28.10899 | 153.47035 | 1158 ft | 160 kts | 149° |
| 2026-04-18 10:29 | -28.11762 | 153.47583 | 965 ft | 121 kts | 151° |
| 2026-04-18 10:30 | -28.12365 | 153.47977 | 862 ft | 89 kts | 150° |
| 2026-04-18 10:30 | -28.12877 | 153.48318 | 613 ft | 88 kts | 150° |
| 2026-04-18 10:30 | -28.13432 | 153.48671 | 473 ft | 90 kts | 155° |
| 2026-04-18 10:30 | -28.13989 | 153.49012 | 394 ft | 92 kts | 152° |
| 2026-04-18 10:31 | -28.14561 | 153.49376 | 324 ft | 96 kts | 157° |
| 2026-04-18 10:31 | -28.15151 | 153.49747 | 208 ft | 94 kts | 154° |
| 2026-04-18 10:31 | -28.15712 | 153.50109 | 46 ft | 92 kts | 154° |
| 2026-04-18 10:31 | -28.16203 | 153.50420 | 23 ft | 62 kts | 164° |
| 2026-04-18 10:32 | -28.16354 | 153.50530 | 23 ft | 12 kts | 102° |